createdAt,value
2022-10-24T05:49:18.935Z,0.00
2022-10-24T05:49:30.664Z,5.62
2022-10-24T05:49:41.656Z,5.62
2022-10-24T05:49:53.357Z,5.62
2022-10-24T05:50:04.108Z,5.62
2022-10-24T05:50:17.445Z,5.62
2022-10-24T05:50:29.365Z,5.62
2022-10-24T05:50:43.235Z,5.62
2022-10-24T05:50:56.026Z,5.62
2022-10-24T05:51:08.398Z,5.62
2022-10-24T05:51:22.340Z,5.62
2022-10-24T05:51:36.237Z,5.62
2022-10-24T05:51:48.778Z,5.62
2022-10-24T05:52:01.484Z,5.62
2022-10-24T05:52:36.104Z,0.00
2022-10-24T05:52:51.978Z,5.62
2022-10-24T05:53:05.543Z,5.62
2022-10-24T05:53:19.419Z,5.62
2022-10-24T05:53:31.758Z,5.62
2022-10-24T05:53:44.700Z,5.62
2022-10-24T05:53:57.232Z,5.62
2022-10-24T05:54:33.342Z,5.62
2022-10-24T05:54:55.217Z,5.62
2022-10-24T05:55:07.180Z,5.62
2022-10-24T05:55:20.089Z,5.62
2022-10-24T05:55:35.869Z,5.62
2022-10-24T05:55:49.888Z,5.62
2022-10-24T05:56:03.268Z,5.62
2022-10-24T05:56:17.486Z,5.62
2022-10-24T05:56:30.121Z,5.62
2022-10-24T05:56:43.137Z,5.62
2022-10-24T05:56:58.364Z,5.62
2022-10-24T05:57:13.267Z,5.62
2022-10-24T05:57:27.281Z,5.62
2022-10-24T05:57:40.787Z,5.62
2022-10-24T05:57:53.496Z,5.62
2022-10-24T05:58:06.864Z,5.62
2022-10-24T05:58:18.837Z,5.62
2022-10-24T05:58:32.625Z,5.62
2022-10-24T05:58:45.192Z,5.62
2022-10-24T05:58:59.576Z,5.62
2022-10-24T05:59:14.488Z,5.62
2022-10-24T05:59:28.132Z,5.62
2022-10-24T05:59:42.044Z,5.62
2022-10-24T05:59:58.627Z,5.62
2022-10-24T06:00:11.571Z,5.62
2022-10-24T06:00:23.295Z,5.62
2022-10-24T06:00:36.082Z,5.62
2022-10-24T06:00:54.069Z,5.62
2022-10-24T06:01:06.770Z,5.62
2022-10-24T06:01:20.025Z,5.62
2022-10-24T06:01:38.655Z,5.62
2022-10-24T06:01:55.426Z,5.62
2022-10-24T06:02:07.832Z,11.25
2022-10-24T06:02:22.457Z,11.25
2022-10-24T06:02:36.929Z,11.25
2022-10-24T06:02:50.456Z,11.25
2022-10-24T06:03:03.824Z,11.25
2022-10-24T06:03:16.323Z,11.25
2022-10-24T06:03:29.489Z,11.25
2022-10-24T06:03:41.939Z,11.25
2022-10-24T06:03:55.042Z,11.25
2022-10-24T06:04:10.024Z,11.25
2022-10-24T06:04:28.729Z,11.25
2022-10-24T06:04:40.717Z,11.25
2022-10-24T06:04:59.089Z,11.25
2022-10-24T06:05:11.198Z,11.25
2022-10-24T06:05:25.631Z,11.25
2022-10-24T06:06:03.079Z,0.00
2022-10-24T06:06:15.198Z,11.25
2022-10-24T06:06:28.659Z,11.25
2022-10-24T06:06:44.607Z,11.25
2022-10-24T06:07:00.008Z,11.25
2022-10-24T06:07:13.378Z,11.25
2022-10-24T06:07:27.186Z,11.25
2022-10-24T06:07:39.722Z,11.25
2022-10-24T06:07:53.611Z,11.25
2022-10-24T06:08:06.621Z,11.25
2022-10-24T06:08:20.023Z,11.25
2022-10-24T06:08:34.110Z,11.25
2022-10-24T06:08:46.493Z,11.25
2022-10-24T06:08:58.810Z,11.25
2022-10-24T06:09:11.950Z,11.25
2022-10-24T06:09:29.797Z,11.25
2022-10-24T06:09:42.694Z,11.25
2022-10-24T06:09:57.134Z,11.25
2022-10-24T06:10:14.096Z,11.25
2022-10-24T06:10:32.451Z,11.25
2022-10-24T06:10:45.238Z,11.25
2022-10-24T06:10:59.107Z,11.25
2022-10-24T06:11:13.436Z,11.25
2022-10-24T06:11:48.930Z,11.25
2022-10-24T06:12:14.306Z,11.25
2022-10-24T06:12:30.592Z,11.25
2022-10-24T06:13:23.542Z,0.00
2022-10-24T06:13:38.695Z,11.25
2022-10-24T06:13:52.375Z,11.25
2022-10-24T06:14:06.894Z,11.25
2022-10-24T06:14:19.607Z,11.25
2022-10-24T06:14:32.280Z,11.25
2022-10-24T06:14:44.404Z,11.25
2022-10-24T06:14:57.164Z,11.25
2022-10-24T06:15:11.585Z,11.25
2022-10-24T06:15:26.403Z,11.25
2022-10-24T06:15:40.382Z,11.25
2022-10-24T06:15:54.214Z,11.25
2022-10-24T06:16:07.563Z,11.25
2022-10-24T06:16:20.493Z,11.25
2022-10-24T06:16:33.999Z,11.25
2022-10-24T06:16:54.076Z,11.25
2022-10-24T06:17:06.476Z,11.25
2022-10-24T06:17:20.370Z,11.25
2022-10-24T06:17:34.628Z,11.25
2022-10-24T06:17:51.143Z,16.88
2022-10-24T06:18:03.831Z,16.88
2022-10-24T06:18:20.089Z,16.88
2022-10-24T06:18:35.134Z,16.88
2022-10-24T06:18:55.322Z,16.88
2022-10-24T06:19:09.333Z,16.88
2022-10-24T06:19:21.985Z,16.88
2022-10-24T06:19:34.637Z,16.88
2022-10-24T06:20:03.475Z,16.88
2022-10-24T06:20:17.549Z,16.88
2022-10-24T06:20:30.969Z,16.88
2022-10-24T06:20:44.376Z,16.88
2022-10-24T06:20:59.805Z,16.88
2022-10-24T06:21:15.586Z,16.88
2022-10-24T06:21:29.176Z,16.88
2022-10-24T06:21:43.301Z,16.88
2022-10-24T06:21:58.266Z,16.88
2022-10-24T06:22:11.370Z,16.88
2022-10-24T06:22:23.898Z,16.88
2022-10-24T06:22:39.405Z,16.88
2022-10-24T06:22:54.728Z,16.88
2022-10-24T06:23:08.618Z,16.88
2022-10-24T06:23:30.341Z,16.88
2022-10-24T06:23:44.859Z,16.88
2022-10-24T06:23:57.981Z,16.88
2022-10-24T06:24:14.626Z,16.88
2022-10-24T06:24:27.992Z,16.88
2022-10-24T06:24:45.336Z,16.88
2022-10-24T06:25:01.644Z,16.88
2022-10-24T06:25:15.559Z,16.88
2022-10-24T06:25:29.504Z,16.88
2022-10-24T06:25:44.678Z,16.88
2022-10-24T06:25:58.167Z,16.88
2022-10-24T06:26:11.820Z,16.88
2022-10-24T06:26:24.760Z,16.88
2022-10-24T06:26:38.168Z,16.88
2022-10-24T06:26:52.103Z,16.88
2022-10-24T06:27:07.939Z,16.88
2022-10-24T06:27:21.368Z,16.88
2022-10-24T06:27:38.443Z,16.88
2022-10-24T06:27:49.581Z,22.50
2022-10-24T06:28:01.673Z,22.50
2022-10-24T06:28:17.140Z,22.50
2022-10-24T06:28:30.058Z,22.50
2022-10-24T06:28:44.213Z,22.50
2022-10-24T06:28:55.844Z,22.50
2022-10-24T06:29:08.928Z,22.50
2022-10-24T06:29:21.138Z,22.50
2022-10-24T06:29:33.959Z,22.50
2022-10-24T06:29:46.414Z,22.50
2022-10-24T06:29:58.345Z,22.50
2022-10-24T06:30:13.504Z,22.50
2022-10-24T06:30:26.614Z,22.50
2022-10-24T06:30:39.606Z,22.50
2022-10-24T06:30:52.293Z,22.50
2022-10-24T06:31:08.562Z,22.50
2022-10-24T06:31:23.267Z,22.50
2022-10-24T06:31:35.406Z,22.50
2022-10-24T06:31:48.939Z,22.50
2022-10-24T06:32:18.149Z,22.50
2022-10-24T06:32:36.954Z,22.50
2022-10-24T06:32:51.414Z,22.50
2022-10-24T06:33:04.450Z,22.50
2022-10-24T06:33:17.209Z,22.50
2022-10-24T06:33:30.260Z,22.50
2022-10-24T06:33:44.423Z,22.50
2022-10-24T06:33:57.080Z,22.50
2022-10-24T06:34:11.046Z,22.50
2022-10-24T06:34:24.057Z,22.50
2022-10-24T06:34:37.253Z,22.50
2022-10-24T06:34:52.632Z,22.50
2022-10-24T06:35:05.510Z,22.50
2022-10-24T06:35:20.460Z,22.50
2022-10-24T06:35:33.100Z,28.12
2022-10-24T06:35:54.589Z,28.12
2022-10-24T06:36:07.588Z,28.12
2022-10-24T06:36:21.286Z,28.12
2022-10-24T06:36:33.789Z,28.12
2022-10-24T06:36:47.156Z,28.12
2022-10-24T06:36:59.721Z,28.12
2022-10-24T06:37:12.153Z,28.12
2022-10-24T06:37:24.242Z,28.12
2022-10-24T06:37:38.253Z,28.12
2022-10-24T06:37:51.750Z,28.12
2022-10-24T06:38:05.210Z,28.12
2022-10-24T06:38:19.504Z,28.12
2022-10-24T06:38:33.342Z,28.12
2022-10-24T06:38:48.451Z,28.12
2022-10-24T06:39:40.020Z,0.00
2022-10-24T06:39:56.558Z,28.12
2022-10-24T06:40:10.438Z,28.12
2022-10-24T06:40:24.608Z,28.12
2022-10-24T06:40:38.029Z,28.12
2022-10-24T06:40:53.469Z,28.12
2022-10-24T06:41:05.394Z,28.12
2022-10-24T06:41:19.590Z,28.12
2022-10-24T06:41:33.373Z,28.12
2022-10-24T06:41:46.503Z,28.12
2022-10-24T06:41:59.109Z,28.12
2022-10-24T06:42:12.454Z,33.75
2022-10-24T06:42:25.417Z,33.75
2022-10-24T06:42:38.512Z,33.75
2022-10-24T06:42:51.564Z,33.75
2022-10-24T06:43:04.779Z,33.75
2022-10-24T06:43:16.914Z,33.75
2022-10-24T06:43:29.540Z,33.75
2022-10-24T06:43:42.161Z,33.75
2022-10-24T06:43:54.601Z,33.75
2022-10-24T06:44:11.239Z,33.75
2022-10-24T06:44:23.182Z,33.75
2022-10-24T06:44:35.143Z,33.75
2022-10-24T06:44:47.541Z,33.75
2022-10-24T06:45:14.385Z,33.75
2022-10-24T06:45:27.669Z,33.75
2022-10-24T06:45:42.505Z,33.75
2022-10-24T06:45:54.922Z,33.75
2022-10-24T06:46:07.390Z,33.75
2022-10-24T06:46:19.506Z,33.75
2022-10-24T06:46:33.680Z,33.75
2022-10-24T06:46:46.894Z,33.75
2022-10-24T06:46:59.362Z,33.75
2022-10-24T06:47:12.843Z,33.75
2022-10-24T06:47:25.301Z,33.75
2022-10-24T06:47:38.131Z,33.75
2022-10-24T06:47:54.100Z,33.75
2022-10-24T06:48:08.062Z,33.75
2022-10-24T06:48:21.226Z,33.75
2022-10-24T06:48:34.248Z,33.75
2022-10-24T06:48:46.152Z,33.75
2022-10-24T06:48:59.044Z,33.75
2022-10-24T06:49:10.886Z,33.75
2022-10-24T06:49:23.567Z,39.38
2022-10-24T06:49:35.945Z,39.38
2022-10-24T06:49:49.262Z,39.38
2022-10-24T06:50:02.783Z,39.38
2022-10-24T06:50:13.589Z,39.38
2022-10-24T06:50:24.333Z,39.38
2022-10-24T06:50:37.051Z,39.38
2022-10-24T06:50:50.096Z,39.38
2022-10-24T06:51:02.677Z,39.38
2022-10-24T06:51:14.495Z,39.38
2022-10-24T06:51:27.067Z,39.38
2022-10-24T06:51:39.114Z,39.38
2022-10-24T06:51:49.899Z,39.38
2022-10-24T06:52:00.652Z,39.38
2022-10-24T06:52:12.535Z,39.38
2022-10-24T06:52:25.194Z,39.38
2022-10-24T06:52:39.165Z,39.38
2022-10-24T06:52:51.205Z,39.38
2022-10-24T06:53:05.142Z,39.38
2022-10-24T06:53:18.307Z,39.38
2022-10-24T06:53:31.063Z,39.38
2022-10-24T06:53:43.823Z,39.38
2022-10-24T06:53:57.746Z,39.38
2022-10-24T06:54:11.174Z,39.38
2022-10-24T06:54:24.191Z,39.38
2022-10-24T06:54:37.215Z,39.38
2022-10-24T06:54:47.970Z,39.38
2022-10-24T06:54:59.656Z,39.38
2022-10-24T06:55:12.568Z,39.38
2022-10-24T06:55:25.188Z,39.38
2022-10-24T06:55:37.416Z,39.38
2022-10-24T06:55:48.215Z,39.38
2022-10-24T06:55:59.996Z,45.00
2022-10-24T06:56:12.407Z,45.00
2022-10-24T06:56:33.763Z,45.00
2022-10-24T06:56:51.156Z,45.00
2022-10-24T06:57:04.137Z,45.00
2022-10-24T06:57:17.432Z,45.00
2022-10-24T06:57:30.841Z,45.00
2022-10-24T06:57:43.356Z,45.00
2022-10-24T06:57:55.687Z,45.00
2022-10-24T06:58:09.669Z,45.00
2022-10-24T06:58:22.701Z,45.00
2022-10-24T06:58:36.736Z,45.00
2022-10-24T06:58:50.667Z,45.00
2022-10-24T06:59:03.068Z,45.00
2022-10-24T06:59:21.052Z,45.00
2022-10-24T06:59:38.028Z,45.00
2022-10-24T06:59:51.465Z,45.00
2022-10-24T07:00:02.267Z,45.00
2022-10-24T07:00:15.193Z,45.00
2022-10-24T07:00:26.133Z,45.00
2022-10-24T07:00:38.090Z,45.00
2022-10-24T07:00:48.913Z,45.00
2022-10-24T07:00:59.898Z,45.00
2022-10-24T07:01:11.904Z,45.00
2022-10-24T07:01:23.967Z,45.00
2022-10-24T07:01:35.994Z,45.00
2022-10-24T07:01:46.935Z,45.00
2022-10-24T07:02:01.659Z,45.00
2022-10-24T07:02:13.537Z,45.00
2022-10-24T07:02:24.605Z,45.00
2022-10-24T07:02:38.048Z,45.00
2022-10-24T07:02:51.491Z,45.00
2022-10-24T07:03:07.619Z,45.00
2022-10-24T07:03:20.779Z,45.00
2022-10-24T07:03:34.410Z,45.00
2022-10-24T07:03:48.508Z,45.00
2022-10-24T07:04:13.919Z,45.00
2022-10-24T07:04:27.011Z,45.00
2022-10-24T07:04:39.914Z,45.00
2022-10-24T07:04:53.289Z,45.00
2022-10-24T07:05:05.679Z,45.00
2022-10-24T07:05:18.701Z,45.00
2022-10-24T07:06:10.847Z,0.00
2022-10-24T07:06:24.312Z,45.00
2022-10-24T07:06:44.439Z,45.00
2022-10-24T07:07:42.613Z,0.00
2022-10-24T07:07:55.773Z,45.00
2022-10-24T07:08:09.613Z,45.00
2022-10-24T07:08:23.542Z,45.00
2022-10-24T07:08:38.351Z,45.00
2022-10-24T07:08:51.921Z,45.00
2022-10-24T07:09:04.922Z,45.00
2022-10-24T07:09:18.650Z,45.00
2022-10-24T07:09:32.975Z,50.62
2022-10-24T07:09:46.893Z,50.62
2022-10-24T07:10:00.184Z,50.62
2022-10-24T07:10:22.195Z,50.62
2022-10-24T07:10:35.878Z,50.62
2022-10-24T07:10:48.068Z,50.62
2022-10-24T07:11:01.916Z,50.62
2022-10-24T07:11:14.887Z,50.62
2022-10-24T07:11:30.660Z,50.62
2022-10-24T07:11:44.336Z,50.62
2022-10-24T07:11:58.924Z,50.62
2022-10-24T07:12:15.064Z,50.62
2022-10-24T07:12:39.713Z,50.62
2022-10-24T07:12:51.113Z,50.62
2022-10-24T07:13:03.146Z,50.62
2022-10-24T07:13:15.315Z,50.62
2022-10-24T07:13:33.556Z,50.62
2022-10-24T07:13:46.165Z,50.62
2022-10-24T07:14:11.137Z,50.62
2022-10-24T07:14:24.577Z,50.62
2022-10-24T07:14:40.664Z,50.62
2022-10-24T07:14:55.074Z,50.62
2022-10-24T07:15:07.944Z,50.62
2022-10-24T07:15:20.114Z,50.62
2022-10-24T07:15:35.874Z,50.62
2022-10-24T07:15:49.405Z,50.62
2022-10-24T07:16:04.585Z,56.25
2022-10-24T07:16:17.492Z,56.25
2022-10-24T07:16:32.155Z,56.25
2022-10-24T07:16:44.334Z,56.25
2022-10-24T07:18:26.888Z,0.00
2022-10-24T07:18:39.261Z,56.25
2022-10-24T07:18:53.389Z,56.25
2022-10-24T07:20:16.621Z,0.00
2022-10-24T07:20:32.063Z,56.25
2022-10-24T07:20:45.158Z,56.25
2022-10-24T07:20:59.651Z,56.25
2022-10-24T07:21:12.323Z,56.25
2022-10-24T07:21:25.948Z,56.25
2022-10-24T07:21:38.109Z,56.25
2022-10-24T07:21:50.913Z,56.25
2022-10-24T07:22:05.001Z,56.25
2022-10-24T07:22:17.643Z,56.25
2022-10-24T07:22:41.458Z,56.25
2022-10-24T07:23:07.838Z,56.25
2022-10-24T07:23:29.494Z,56.25
2022-10-24T07:23:44.759Z,56.25
2022-10-24T07:23:57.579Z,61.88
2022-10-24T07:24:11.810Z,61.88
2022-10-24T07:26:22.082Z,0.00
2022-10-24T07:26:35.315Z,61.88
2022-10-24T07:26:49.123Z,61.88
2022-10-24T07:27:01.812Z,61.88
2022-10-24T07:27:16.265Z,61.88
2022-10-24T07:27:32.300Z,61.88
2022-10-24T07:28:23.539Z,0.00
2022-10-24T07:28:35.305Z,67.50
2022-10-24T07:28:49.091Z,67.50
2022-10-24T07:29:16.287Z,67.50
2022-10-24T07:29:30.208Z,67.50
2022-10-24T07:29:44.667Z,67.50
2022-10-24T07:30:01.557Z,67.50
2022-10-24T07:30:17.328Z,67.50
2022-10-24T07:30:32.487Z,67.50
2022-10-24T07:30:45.318Z,67.50
2022-10-24T07:31:07.588Z,73.12
2022-10-24T07:32:49.822Z,0.00
2022-10-24T07:33:02.313Z,73.12
2022-10-24T07:33:16.275Z,73.12
2022-10-24T07:33:28.142Z,73.12
2022-10-24T07:34:31.364Z,0.00
2022-10-24T07:35:34.825Z,0.00
2022-10-24T07:35:48.684Z,78.75
2022-10-24T07:36:02.379Z,78.75
2022-10-24T07:36:21.795Z,78.75
2022-10-24T07:36:40.099Z,78.75
2022-10-24T07:36:52.735Z,78.75
2022-10-24T07:37:05.316Z,78.75
2022-10-24T07:37:20.311Z,78.75
2022-10-24T07:37:40.987Z,78.75
2022-10-24T07:38:06.579Z,78.75
2022-10-24T07:38:50.495Z,0.00
2022-10-24T07:39:04.259Z,78.75
2022-10-24T07:39:18.927Z,78.75
2022-10-24T07:39:31.963Z,78.75
2022-10-24T07:39:46.488Z,73.12
2022-10-24T07:40:01.702Z,73.12
2022-10-24T07:40:15.841Z,78.75
2022-10-24T07:41:06.969Z,0.00
2022-10-24T07:41:21.265Z,78.75
2022-10-24T07:41:34.794Z,78.75
2022-10-24T07:41:59.698Z,78.75
2022-10-24T07:42:12.012Z,78.75
2022-10-24T07:42:37.097Z,78.75
2022-10-24T07:42:49.925Z,73.12
2022-10-24T07:43:03.084Z,73.12
2022-10-24T07:43:18.985Z,73.12
2022-10-24T07:43:31.175Z,78.75
2022-10-24T07:43:43.823Z,78.75
2022-10-24T07:44:47.531Z,0.00
2022-10-24T07:45:58.545Z,0.00
2022-10-24T07:46:12.784Z,73.12
2022-10-24T07:46:58.874Z,0.00
2022-10-24T07:47:11.334Z,73.12
2022-10-24T07:47:24.082Z,73.12
2022-10-24T07:47:36.933Z,73.12
2022-10-24T07:47:50.308Z,73.12
2022-10-24T07:48:53.096Z,0.00
2022-10-24T07:49:45.840Z,0.00
2022-10-24T07:49:58.779Z,78.75
2022-10-24T07:50:12.673Z,78.75
2022-10-24T07:50:26.280Z,78.75
2022-10-24T07:50:39.631Z,78.75
2022-10-24T07:50:51.699Z,73.12
2022-10-24T07:51:05.436Z,78.75
2022-10-24T07:51:23.663Z,78.75
2022-10-24T07:51:37.741Z,78.75
2022-10-24T07:51:50.316Z,78.75
2022-10-24T07:52:06.136Z,78.75
2022-10-24T07:52:23.401Z,78.75
2022-10-24T07:52:35.700Z,78.75
2022-10-24T07:52:48.662Z,78.75
2022-10-24T07:53:02.651Z,78.75
2022-10-24T07:53:17.114Z,78.75
2022-10-24T07:53:32.951Z,78.75
2022-10-24T07:54:24.275Z,0.00
2022-10-24T07:54:37.798Z,78.75
2022-10-24T07:54:51.229Z,78.75
2022-10-24T07:55:07.671Z,78.75
2022-10-24T07:55:18.398Z,78.75
2022-10-24T07:55:31.803Z,78.75
2022-10-24T07:55:44.780Z,78.75
2022-10-24T07:55:58.160Z,78.75
2022-10-24T07:56:11.550Z,78.75
2022-10-24T07:56:24.363Z,78.75
2022-10-24T07:56:36.298Z,78.75
2022-10-24T07:56:48.258Z,78.75
2022-10-24T07:56:59.090Z,78.75
2022-10-24T07:57:10.880Z,78.75
2022-10-24T07:57:44.402Z,0.00
2022-10-24T07:57:55.331Z,78.75
2022-10-24T07:58:06.142Z,78.75
2022-10-24T07:58:17.930Z,78.75
2022-10-24T07:58:28.672Z,78.75
2022-10-24T07:58:39.409Z,78.75
2022-10-24T07:58:51.099Z,78.75
2022-10-24T07:59:09.147Z,78.75
2022-10-24T07:59:37.144Z,78.75
2022-10-24T07:59:42.445Z,78.75
2022-10-24T07:59:49.653Z,84.38
2022-10-24T08:00:00.473Z,84.38
2022-10-24T08:00:11.191Z,84.38
2022-10-24T08:00:21.949Z,84.38
2022-10-24T08:00:32.749Z,84.38
2022-10-24T08:00:45.570Z,84.38
2022-10-24T08:00:56.440Z,78.75
2022-10-24T08:01:07.258Z,78.75
2022-10-24T08:01:19.251Z,78.75
2022-10-24T08:01:32.701Z,78.75
2022-10-24T08:01:44.413Z,84.38
2022-10-24T08:01:55.153Z,84.38
2022-10-24T08:02:08.042Z,84.38
2022-10-24T08:02:18.788Z,84.38
2022-10-24T08:02:29.539Z,84.38
2022-10-24T08:02:41.382Z,84.38
2022-10-24T08:02:52.129Z,84.38
2022-10-24T08:03:04.612Z,84.38
2022-10-24T08:03:16.301Z,84.38
2022-10-24T08:03:27.054Z,84.38
2022-10-24T08:03:37.806Z,84.38
2022-10-24T08:03:48.541Z,84.38
2022-10-24T08:03:59.273Z,84.38
2022-10-24T08:04:10.063Z,84.38
2022-10-24T08:04:21.742Z,90.00
2022-10-24T08:04:32.504Z,90.00
2022-10-24T08:04:43.239Z,90.00
2022-10-24T08:04:53.972Z,95.62
2022-10-24T08:05:04.892Z,95.62
2022-10-24T08:05:18.135Z,95.62
2022-10-24T08:05:31.291Z,95.62
2022-10-24T08:05:42.043Z,95.62
2022-10-24T08:05:52.802Z,101.25
2022-10-24T08:06:04.528Z,101.25
2022-10-24T08:06:15.273Z,101.25
2022-10-24T08:06:26.024Z,95.62
2022-10-24T08:06:36.752Z,95.62
2022-10-24T08:06:47.483Z,95.62
2022-10-24T08:06:58.259Z,95.62
2022-10-24T08:07:10.284Z,95.62
2022-10-24T08:07:21.017Z,95.62
2022-10-24T08:07:31.762Z,95.62
2022-10-24T08:07:43.207Z,95.62
2022-10-24T08:08:00.281Z,95.62
2022-10-24T08:08:30.704Z,90.00
2022-10-24T08:08:36.253Z,90.00
2022-10-24T08:08:43.086Z,90.00
2022-10-24T08:08:53.835Z,90.00
2022-10-24T08:09:04.685Z,90.00
2022-10-24T08:09:15.383Z,84.38
2022-10-24T08:09:26.135Z,84.38
2022-10-24T08:09:36.883Z,78.75
2022-10-24T08:09:47.622Z,78.75
2022-10-24T08:09:58.376Z,78.75
2022-10-24T08:10:09.117Z,78.75
2022-10-24T08:10:22.431Z,78.75
2022-10-24T08:10:34.989Z,78.75
2022-10-24T08:10:46.868Z,78.75
2022-10-24T08:10:57.847Z,78.75
2022-10-24T08:11:12.138Z,84.38
2022-10-24T08:11:23.935Z,90.00
2022-10-24T08:11:35.756Z,90.00
2022-10-24T08:11:47.547Z,90.00
2022-10-24T08:11:58.479Z,90.00
2022-10-24T08:12:10.275Z,95.62
2022-10-24T08:12:21.015Z,101.25
2022-10-24T08:12:32.766Z,101.25
2022-10-24T08:12:45.457Z,101.25
2022-10-24T08:12:56.365Z,101.25
2022-10-24T08:13:10.299Z,106.88
2022-10-24T08:13:23.867Z,106.88
2022-10-24T08:13:35.717Z,106.88
2022-10-24T08:13:49.039Z,101.25
2022-10-24T08:14:02.069Z,101.25
2022-10-24T08:14:14.441Z,101.25
2022-10-24T08:14:27.780Z,101.25
2022-10-24T08:14:39.638Z,95.62
2022-10-24T08:14:53.466Z,95.62
2022-10-24T08:15:06.282Z,95.62
2022-10-24T08:15:18.066Z,90.00
2022-10-24T08:15:31.912Z,90.00
2022-10-24T08:15:47.270Z,90.00
2022-10-24T08:16:22.988Z,0.00
2022-10-24T08:16:38.353Z,95.62
2022-10-24T08:16:50.697Z,95.62
2022-10-24T08:17:04.752Z,101.25
2022-10-24T08:17:21.672Z,106.88
2022-10-24T08:17:36.709Z,101.25
2022-10-24T08:17:48.608Z,95.62
2022-10-24T08:18:01.958Z,95.62
2022-10-24T08:18:14.858Z,95.62
2022-10-24T08:18:30.186Z,95.62
2022-10-24T08:18:44.196Z,101.25
2022-10-24T08:18:59.518Z,95.62
2022-10-24T08:19:11.940Z,95.62
2022-10-24T08:19:41.154Z,95.62
2022-10-24T08:19:56.590Z,90.00
2022-10-24T08:20:09.470Z,101.25
2022-10-24T08:20:26.833Z,90.00
2022-10-24T08:20:40.863Z,84.38
2022-10-24T08:20:54.842Z,84.38
2022-10-24T08:21:08.848Z,84.38
2022-10-24T08:21:22.378Z,84.38
2022-10-24T08:21:36.578Z,78.75
2022-10-24T08:21:47.373Z,78.75
2022-10-24T08:21:59.784Z,78.75
2022-10-24T08:22:14.371Z,78.75
2022-10-24T08:22:27.091Z,84.38
2022-10-24T08:22:39.099Z,84.38
2022-10-24T08:22:52.011Z,84.38
2022-10-24T08:23:04.464Z,84.38
2022-10-24T08:23:21.916Z,84.38
2022-10-24T08:23:34.921Z,84.38
2022-10-24T08:23:47.211Z,90.00
2022-10-24T08:24:24.680Z,0.00
2022-10-24T08:24:37.611Z,90.00
2022-10-24T08:24:50.832Z,90.00
2022-10-24T08:25:04.637Z,90.00
2022-10-24T08:25:19.891Z,90.00
2022-10-24T08:25:31.853Z,90.00
2022-10-24T08:25:42.891Z,90.00
2022-10-24T08:25:55.562Z,95.62
2022-10-24T08:26:09.955Z,90.00
2022-10-24T08:26:20.864Z,90.00
2022-10-24T08:26:34.534Z,90.00
2022-10-24T08:26:48.174Z,90.00
2022-10-24T08:27:05.416Z,95.62
2022-10-24T08:27:18.437Z,101.25
2022-10-24T08:27:31.051Z,101.25
2022-10-24T08:27:45.095Z,106.88
2022-10-24T08:27:57.070Z,106.88
2022-10-24T08:28:09.743Z,118.12
2022-10-24T08:28:21.629Z,123.75
2022-10-24T08:28:34.983Z,123.75
2022-10-24T08:28:47.645Z,129.38
2022-10-24T08:29:00.623Z,129.38
2022-10-24T08:29:12.602Z,135.00
2022-10-24T08:29:25.457Z,135.00
2022-10-24T08:29:38.313Z,135.00
2022-10-24T08:29:50.584Z,140.62
2022-10-24T08:30:03.432Z,140.62
2022-10-24T08:30:15.813Z,140.62
2022-10-24T08:30:27.139Z,146.25
2022-10-24T08:30:40.014Z,146.25
2022-10-24T08:30:51.503Z,146.25
2022-10-24T08:31:05.951Z,146.25
2022-10-24T08:31:18.833Z,151.88
2022-10-24T08:31:32.042Z,151.88
2022-10-24T08:31:43.898Z,151.88
2022-10-24T08:31:59.282Z,151.88
2022-10-24T08:32:13.327Z,151.88
2022-10-24T08:32:26.233Z,151.88
2022-10-24T08:32:38.154Z,151.88
2022-10-24T08:32:53.005Z,151.88
2022-10-24T08:33:04.691Z,151.88
2022-10-24T08:33:23.305Z,151.88
2022-10-24T08:33:40.617Z,151.88
2022-10-24T08:33:53.393Z,151.88
2022-10-24T08:34:06.834Z,157.50
2022-10-24T08:34:19.210Z,157.50
2022-10-24T08:34:31.699Z,163.12
2022-10-24T08:34:45.256Z,163.12
2022-10-24T08:34:58.173Z,163.12
2022-10-24T08:35:13.055Z,151.88
2022-10-24T08:35:25.615Z,129.38
2022-10-24T08:35:38.738Z,151.88
2022-10-24T08:36:03.160Z,151.88
2022-10-24T08:36:25.746Z,163.12
2022-10-24T08:36:47.586Z,163.12
2022-10-24T08:37:00.276Z,163.12
2022-10-24T08:37:12.855Z,163.12
2022-10-24T08:37:26.538Z,157.50
2022-10-24T08:37:39.206Z,151.88
2022-10-24T08:37:51.504Z,151.88
2022-10-24T08:38:05.353Z,151.88
2022-10-24T08:38:17.688Z,140.62
2022-10-24T08:38:29.548Z,140.62
2022-10-24T08:38:42.168Z,146.25
2022-10-24T08:38:55.506Z,146.25
2022-10-24T08:39:08.245Z,140.62
2022-10-24T08:39:19.217Z,146.25
2022-10-24T08:39:34.460Z,140.62
2022-10-24T08:39:47.886Z,140.62
2022-10-24T08:40:06.096Z,146.25
2022-10-24T08:40:18.420Z,146.25
2022-10-24T08:40:30.949Z,146.25
2022-10-24T08:40:43.793Z,140.62
2022-10-24T08:40:56.259Z,135.00
2022-10-24T08:41:09.160Z,140.62
2022-10-24T08:41:22.159Z,140.62
2022-10-24T08:41:38.994Z,140.62
2022-10-24T08:42:04.758Z,146.25
2022-10-24T08:42:16.339Z,146.25
2022-10-24T08:42:28.688Z,140.62
2022-10-24T08:42:42.107Z,140.62
2022-10-24T08:42:53.888Z,140.62
2022-10-24T08:43:05.729Z,140.62
2022-10-24T08:43:17.386Z,140.62
2022-10-24T08:43:29.298Z,140.62
2022-10-24T08:43:41.161Z,146.25
2022-10-24T08:43:53.048Z,140.62
2022-10-24T08:44:05.439Z,140.62
2022-10-24T08:44:56.187Z,0.00
2022-10-24T08:45:09.522Z,118.12
2022-10-24T08:45:22.317Z,112.50
2022-10-24T08:45:36.126Z,118.12
2022-10-24T08:45:49.085Z,118.12
2022-10-24T08:47:51.397Z,112.50
2022-10-24T08:48:12.397Z,112.50
2022-10-24T08:48:25.650Z,123.75
2022-10-24T08:48:38.673Z,123.75
2022-10-24T08:48:56.386Z,118.12
2022-10-24T08:49:20.012Z,118.12
2022-10-24T08:49:33.018Z,118.12
2022-10-24T08:49:50.310Z,123.75
2022-10-24T08:50:04.118Z,123.75
2022-10-24T08:50:59.200Z,0.00
2022-10-24T08:51:12.007Z,135.00
2022-10-24T08:51:24.858Z,140.62
2022-10-24T08:51:37.483Z,140.62
2022-10-24T08:51:50.399Z,140.62
2022-10-24T08:52:03.738Z,135.00
2022-10-24T08:52:16.107Z,135.00
2022-10-24T08:52:29.469Z,129.38
2022-10-24T08:52:43.718Z,129.38
2022-10-24T08:52:57.820Z,129.38
2022-10-24T08:53:09.701Z,123.75
2022-10-24T08:53:24.022Z,123.75
2022-10-24T08:53:40.231Z,123.75
2022-10-24T08:53:53.107Z,123.75
2022-10-24T08:54:05.423Z,129.38
2022-10-24T08:54:19.210Z,129.38
2022-10-24T08:54:32.511Z,135.00
2022-10-24T08:54:45.191Z,135.00
2022-10-24T08:54:58.120Z,129.38
2022-10-24T08:55:25.088Z,135.00
2022-10-24T08:55:48.240Z,129.38
2022-10-24T08:55:49.777Z,140.62
2022-10-24T08:56:04.239Z,140.62
2022-10-24T08:56:16.948Z,135.00
2022-10-24T08:56:30.330Z,135.00
2022-10-24T08:56:43.459Z,129.38
2022-10-24T08:56:56.906Z,129.38
2022-10-24T08:57:09.342Z,129.38
2022-10-24T08:57:21.818Z,129.38
2022-10-24T08:57:35.760Z,135.00
2022-10-24T08:57:48.642Z,135.00
2022-10-24T08:58:00.854Z,135.00
2022-10-24T08:58:11.850Z,140.62
2022-10-24T08:58:24.460Z,140.62
2022-10-24T08:58:36.641Z,140.62
2022-10-24T08:59:29.965Z,0.00
2022-10-24T09:00:20.533Z,0.00
2022-10-24T09:00:36.815Z,140.62
2022-10-24T09:00:50.094Z,135.00
2022-10-24T09:01:02.761Z,135.00
2022-10-24T09:01:24.160Z,135.00
2022-10-24T09:01:36.967Z,129.38
2022-10-24T09:01:50.577Z,129.38
2022-10-24T09:02:07.981Z,123.75
2022-10-24T09:02:25.647Z,123.75
2022-10-24T09:02:38.506Z,118.12
2022-10-24T09:02:50.194Z,123.75
2022-10-24T09:03:03.443Z,123.75
2022-10-24T09:03:31.269Z,118.12
2022-10-24T09:03:54.919Z,118.12
2022-10-24T09:03:57.058Z,118.12
2022-10-24T09:04:12.635Z,118.12
2022-10-24T09:04:27.636Z,118.12
2022-10-24T09:04:42.118Z,118.12
2022-10-24T09:05:02.370Z,118.12
2022-10-24T09:05:13.835Z,112.50
2022-10-24T09:05:27.206Z,112.50
2022-10-24T09:05:41.609Z,112.50
2022-10-24T09:05:57.935Z,112.50
2022-10-24T09:06:10.197Z,112.50
2022-10-24T09:07:57.799Z,0.00
2022-10-24T09:08:10.019Z,112.50
2022-10-24T09:08:23.722Z,112.50
2022-10-24T09:08:39.799Z,112.50
2022-10-24T09:08:56.439Z,118.12
2022-10-24T09:09:12.170Z,123.75
2022-10-24T09:09:25.619Z,118.12
2022-10-24T09:09:38.625Z,118.12
2022-10-24T09:11:13.631Z,0.00
2022-10-24T09:11:28.672Z,118.12
2022-10-24T09:11:44.406Z,112.50
2022-10-24T09:12:05.556Z,112.50
2022-10-24T09:12:21.523Z,118.12
2022-10-24T09:12:38.135Z,118.12
2022-10-24T09:12:50.310Z,118.12
2022-10-24T09:13:11.892Z,112.50